createdAt,value
2019-05-06T00:00:59.744Z,62.92
2019-05-06T00:03:34.215Z,62.61
2019-05-06T00:06:06.348Z,62.46
2019-05-06T00:08:38.719Z,62.37
2019-05-06T00:11:11.008Z,62.40
2019-05-06T00:13:44.513Z,62.52
2019-05-06T00:16:17.087Z,62.67
2019-05-06T00:18:49.665Z,62.66
2019-05-06T00:21:24.370Z,62.76
2019-05-06T00:23:56.465Z,62.60
2019-05-06T00:26:34.123Z,62.40
2019-05-06T00:29:09.197Z,62.43
2019-05-06T00:31:43.885Z,62.43
2019-05-06T00:34:15.887Z,62.44
2019-05-06T00:36:48.276Z,62.44
2019-05-06T00:39:24.210Z,62.41
2019-05-06T00:41:57.954Z,62.49
2019-05-06T00:44:30.406Z,62.68
2019-05-06T00:47:04.322Z,62.82
2019-05-06T00:49:36.676Z,63.10
2019-05-06T00:52:09.371Z,63.06
2019-05-06T00:54:43.644Z,63.09
2019-05-06T00:57:15.947Z,63.14
2019-05-06T00:59:49.759Z,63.08
2019-05-06T01:02:23.464Z,63.11
2019-05-06T01:04:55.738Z,63.53
2019-05-06T01:07:28.022Z,63.56
2019-05-06T01:10:00.494Z,63.57
2019-05-06T01:12:34.646Z,63.61
2019-05-06T01:15:09.139Z,63.67
2019-05-06T01:17:44.418Z,63.61
2019-05-06T01:20:17.764Z,63.67
2019-05-06T01:22:50.026Z,63.86
2019-05-06T01:25:23.743Z,63.90
2019-05-06T01:27:56.024Z,63.88
2019-05-06T01:30:28.296Z,63.86
2019-05-06T01:33:00.453Z,63.77
2019-05-06T01:35:35.061Z,63.61
2019-05-06T01:38:20.672Z,63.67
2019-05-06T01:40:54.770Z,63.53
2019-05-06T01:43:28.900Z,63.36
2019-05-06T01:46:01.069Z,63.29
2019-05-06T01:48:50.027Z,63.28
2019-05-06T01:51:24.119Z,63.31
2019-05-06T01:53:56.615Z,63.19
2019-05-06T01:56:28.869Z,63.16
2019-05-06T01:59:01.261Z,63.18
2019-05-06T02:01:34.272Z,63.21
2019-05-06T02:04:07.633Z,63.11
2019-05-06T02:06:39.923Z,62.99
2019-05-06T02:09:15.857Z,63.04
2019-05-06T02:11:48.385Z,63.16
2019-05-06T02:14:20.608Z,63.18
2019-05-06T02:16:54.540Z,63.18
2019-05-06T02:19:26.931Z,63.25
2019-05-06T02:22:01.133Z,63.26
2019-05-06T02:24:35.150Z,63.15
2019-05-06T02:27:07.826Z,63.04
2019-05-06T02:29:43.451Z,63.12
2019-05-06T02:32:26.078Z,63.23
2019-05-06T02:35:07.769Z,63.16
2019-05-06T02:37:46.871Z,63.13
2019-05-06T02:40:25.064Z,63.03
2019-05-06T02:42:55.846Z,63.04
2019-05-06T02:45:28.227Z,62.94
2019-05-06T02:48:14.155Z,63.08
2019-05-06T02:50:48.012Z,63.19
2019-05-06T02:53:23.595Z,63.29
2019-05-06T02:55:56.443Z,63.13
2019-05-06T02:58:33.627Z,62.96
2019-05-06T03:01:06.222Z,62.84
2019-05-06T03:03:38.689Z,62.67
2019-05-06T03:06:13.110Z,62.52
2019-05-06T03:08:45.283Z,62.54
2019-05-06T03:11:17.865Z,62.52
2019-05-06T03:13:50.337Z,62.52
2019-05-06T03:16:23.787Z,62.43
2019-05-06T03:18:56.094Z,62.45
2019-05-06T03:21:33.653Z,62.34
2019-05-06T03:24:18.360Z,62.45
2019-05-06T03:26:56.856Z,62.49
2019-05-06T03:29:29.454Z,62.50
2019-05-06T03:32:06.135Z,62.47
2019-05-06T03:34:57.961Z,62.61
2019-05-06T03:37:09.646Z,62.64
2019-05-06T03:39:43.367Z,62.76
2019-05-06T03:42:16.597Z,62.63
2019-05-06T03:44:53.293Z,62.50
2019-05-06T03:47:29.469Z,62.35
2019-05-06T03:50:04.727Z,62.29
2019-05-06T03:52:35.876Z,62.17
2019-05-06T03:55:08.447Z,62.25
2019-05-06T03:57:42.764Z,62.30
2019-05-06T04:00:16.295Z,62.38
2019-05-06T04:02:48.854Z,62.41
2019-05-06T04:05:23.775Z,62.59
2019-05-06T04:07:55.587Z,62.66
2019-05-06T04:10:28.126Z,62.72
2019-05-06T04:13:04.135Z,62.83
2019-05-06T04:15:47.653Z,62.93
2019-05-06T04:18:23.855Z,63.00
2019-05-06T04:20:56.845Z,62.78
2019-05-06T04:23:33.159Z,62.86
2019-05-06T04:26:16.130Z,62.81
2019-05-06T04:28:48.517Z,62.98
2019-05-06T04:31:22.865Z,62.87
2019-05-06T04:34:08.428Z,62.84
2019-05-06T04:36:28.744Z,62.97
2019-05-06T04:39:13.180Z,63.11
2019-05-06T04:41:45.144Z,62.97
2019-05-06T04:44:17.693Z,62.92
2019-05-06T04:46:49.982Z,62.87
2019-05-06T04:49:23.746Z,62.76
2019-05-06T04:51:56.059Z,62.68
2019-05-06T04:54:28.247Z,62.62
2019-05-06T04:57:00.533Z,62.64
2019-05-06T04:59:33.104Z,62.54
2019-05-06T05:02:05.399Z,62.48
2019-05-06T05:04:38.031Z,62.16
2019-05-06T05:07:12.637Z,62.26
2019-05-06T05:09:44.410Z,61.91
2019-05-06T05:12:18.075Z,61.79
2019-05-06T05:14:55.196Z,61.67
2019-05-06T05:17:33.114Z,61.50
2019-05-06T05:20:07.670Z,61.19
2019-05-06T05:22:42.219Z,61.11
2019-05-06T05:25:13.731Z,60.80
2019-05-06T05:27:46.132Z,60.53
2019-05-06T05:30:18.466Z,60.21
2019-05-06T05:32:52.092Z,60.08
2019-05-06T05:35:24.328Z,59.96
2019-05-06T05:37:56.733Z,59.51
2019-05-06T05:40:29.288Z,59.44
2019-05-06T05:43:18.554Z,59.32
2019-05-06T05:45:52.331Z,58.81
2019-05-06T05:48:42.538Z,58.71
2019-05-06T05:51:15.009Z,58.66
2019-05-06T05:53:47.473Z,58.38
2019-05-06T05:56:19.760Z,58.51
2019-05-06T05:58:53.555Z,58.23
2019-05-06T06:01:25.901Z,57.90
2019-05-06T11:49:04.964Z,37.14
2019-05-06T11:51:38.144Z,37.40
2019-05-06T11:54:17.449Z,37.42
2019-05-06T11:56:50.904Z,37.19
2019-05-06T11:59:19.489Z,36.82
2019-05-06T12:01:53.693Z,36.38
2019-05-06T12:04:25.916Z,36.69
2019-05-06T12:07:10.335Z,36.48
2019-05-06T12:09:35.442Z,36.18
2019-05-06T12:12:07.713Z,35.84
2019-05-06T12:14:40.077Z,35.35
2019-05-06T12:17:12.831Z,35.82
2019-05-06T12:19:45.194Z,35.54
2019-05-06T12:22:17.221Z,35.62
2019-05-06T12:24:49.355Z,35.24
2019-05-06T12:27:26.285Z,35.74
2019-05-06T12:29:58.790Z,35.13
2019-05-06T12:32:33.095Z,35.53
2019-05-06T12:35:07.216Z,35.78
2019-05-06T12:37:44.056Z,35.81
2019-05-06T12:40:16.248Z,35.91
2019-05-06T12:42:49.910Z,35.59
2019-05-06T12:45:35.601Z,35.76
2019-05-06T12:48:13.071Z,35.64
2019-05-06T12:50:44.868Z,35.88
2019-05-06T12:53:17.031Z,36.00
2019-05-06T12:55:49.276Z,35.51
2019-05-06T12:58:23.369Z,35.11
2019-05-06T13:00:55.557Z,35.52
2019-05-06T13:03:27.736Z,35.63
2019-05-06T13:06:00.000Z,35.24
2019-05-06T13:08:52.647Z,35.34
2019-05-06T13:11:07.860Z,35.30
2019-05-06T13:13:55.566Z,35.41
2019-05-06T13:16:15.871Z,35.74
2019-05-06T13:18:51.658Z,35.95
2019-05-06T13:21:22.468Z,36.01
2019-05-06T13:23:56.250Z,36.06
2019-05-06T13:26:28.520Z,36.41
2019-05-06T13:29:04.350Z,36.56
2019-05-06T13:31:37.664Z,37.04
2019-05-06T13:34:13.381Z,36.54
2019-05-06T13:36:45.820Z,36.38
2019-05-06T13:39:18.076Z,36.55
2019-05-06T13:41:52.978Z,35.52
2019-05-06T13:44:25.239Z,35.99
2019-05-06T13:46:57.933Z,36.04
2019-05-06T13:49:38.024Z,36.11
2019-05-06T13:54:18.876Z,35.17
2019-05-06T13:56:52.534Z,34.59
2019-05-06T13:59:29.452Z,34.40
2019-05-06T14:02:00.305Z,34.52
2019-05-06T14:04:32.777Z,34.71
2019-05-06T14:07:07.396Z,35.15
2019-05-06T14:09:42.755Z,35.96
2019-05-06T14:12:14.251Z,36.39
2019-05-06T14:14:46.484Z,36.55
2019-05-06T14:17:18.570Z,36.38
2019-05-06T14:19:53.147Z,36.90
2019-05-06T14:22:24.633Z,37.08
2019-05-06T14:24:58.538Z,36.98
2019-05-06T14:27:32.769Z,37.25
2019-05-06T14:30:08.888Z,37.13
2019-05-06T14:32:43.286Z,37.54
2019-05-06T14:35:15.502Z,37.45
2019-05-06T14:37:47.967Z,37.37
2019-05-06T14:40:22.575Z,37.44
2019-05-06T14:42:54.778Z,37.03
2019-05-06T14:45:27.040Z,36.76
2019-05-06T14:47:59.632Z,36.86
2019-05-06T14:50:44.404Z,36.44
2019-05-06T14:53:06.337Z,36.33
2019-05-06T14:55:39.727Z,36.50
2019-05-06T14:58:12.128Z,36.55
2019-05-06T15:00:44.586Z,36.35
2019-05-06T15:03:16.951Z,35.96
2019-05-06T15:05:49.319Z,36.16
2019-05-06T15:08:22.492Z,36.27
2019-05-06T15:10:54.982Z,36.70
2019-05-06T15:13:27.790Z,36.75
2019-05-06T15:16:03.487Z,36.43
2019-05-06T15:18:34.272Z,36.36
2019-05-06T16:04:02.234Z,37.55
2019-05-06T16:06:35.815Z,38.18
2019-05-06T16:09:08.311Z,38.35
2019-05-06T16:11:44.525Z,38.55
2019-05-06T16:14:16.132Z,39.06
2019-05-06T16:16:48.589Z,39.27
2019-05-06T16:19:22.839Z,39.60
2019-05-06T16:21:54.978Z,39.92
2019-05-06T16:24:34.573Z,39.99
2019-05-06T16:27:05.578Z,40.25
2019-05-06T16:29:37.953Z,40.31
2019-05-06T16:32:10.868Z,40.49
2019-05-06T16:34:44.029Z,40.91
2019-05-06T16:37:16.409Z,40.70
2019-05-06T16:39:48.781Z,40.88
2019-05-06T16:42:22.588Z,41.09
2019-05-06T16:44:54.860Z,41.04
2019-05-06T16:47:38.045Z,41.36
2019-05-06T16:50:13.365Z,41.35
2019-05-06T16:52:45.930Z,41.60
2019-05-06T16:55:19.817Z,41.89
2019-05-06T16:57:53.928Z,42.19
2019-05-06T17:00:27.841Z,42.44
2019-05-06T17:03:07.668Z,43.11
2019-05-06T17:05:44.662Z,43.57
2019-05-06T17:08:17.023Z,43.64
2019-05-06T17:10:49.318Z,44.36
2019-05-06T17:13:22.820Z,44.87
2019-05-06T17:15:55.185Z,44.87
2019-05-06T17:18:27.767Z,45.17
2019-05-06T17:21:00.346Z,45.58
2019-05-06T17:23:33.947Z,45.95
2019-05-06T17:26:06.325Z,46.25
2019-05-06T17:28:46.379Z,46.81
2019-05-06T17:31:22.325Z,47.01
2019-05-06T17:34:09.325Z,47.13
2019-05-06T17:36:42.240Z,47.43
2019-05-06T17:39:14.586Z,48.43
2019-05-06T17:41:49.161Z,49.18
2019-05-06T17:44:22.836Z,49.99
2019-05-06T17:47:05.847Z,50.56
2019-05-06T17:49:39.451Z,50.92
2019-05-06T17:52:22.554Z,51.34
2019-05-06T17:54:54.851Z,51.46
2019-05-06T17:57:27.204Z,52.18
2019-05-06T17:59:59.679Z,52.31
2019-05-06T18:02:33.077Z,51.83
2019-05-06T18:05:06.084Z,51.44
2019-05-06T18:07:39.276Z,51.57
2019-05-06T18:10:12.087Z,52.20
2019-05-06T18:12:44.521Z,52.30
2019-05-06T18:15:17.120Z,52.23
2019-05-06T18:17:52.477Z,53.23
2019-05-06T18:20:24.923Z,53.61
2019-05-06T18:22:57.603Z,53.63
2019-05-06T18:25:32.806Z,53.40
2019-05-06T18:28:05.235Z,52.27
2019-05-06T18:30:37.917Z,52.06
2019-05-06T18:33:10.285Z,53.81
2019-05-06T18:35:42.651Z,54.69
2019-05-06T18:38:15.142Z,54.41
2019-05-06T18:40:47.606Z,54.79
2019-05-06T18:43:20.204Z,55.00
2019-05-06T18:45:52.574Z,54.76
2019-05-06T18:48:29.540Z,54.94
2019-05-06T18:50:59.173Z,55.51
2019-05-06T18:53:33.128Z,55.30
2019-05-06T18:56:06.168Z,55.48
2019-05-06T18:58:38.747Z,55.59
2019-05-06T19:01:13.211Z,56.37
2019-05-06T19:03:46.551Z,56.57
2019-05-06T19:06:18.824Z,56.79
2019-05-06T19:09:02.576Z,56.87
2019-05-06T19:11:36.498Z,57.01
2019-05-06T19:14:08.744Z,56.94
2019-05-06T19:16:49.956Z,56.99
2019-05-06T19:19:15.334Z,56.88
2019-05-06T19:21:47.824Z,57.50
2019-05-06T19:24:22.467Z,58.11
2019-05-06T19:26:54.110Z,58.61
2019-05-06T19:29:27.011Z,59.19
2019-05-06T19:31:59.255Z,59.44
2019-05-06T19:34:35.210Z,59.22
2019-05-06T19:37:07.074Z,59.25
2019-05-06T19:39:39.672Z,59.19
2019-05-06T19:42:12.971Z,59.51
2019-05-06T19:44:46.363Z,59.47
2019-05-06T19:47:18.929Z,59.57
2019-05-06T19:49:53.156Z,59.74
2019-05-06T19:52:25.432Z,59.71
2019-05-06T19:54:58.019Z,59.59
2019-05-06T19:57:32.346Z,59.66
2019-05-06T20:00:05.427Z,59.68
2019-05-06T20:02:39.233Z,59.45
2019-05-06T20:05:13.141Z,59.50
2019-05-06T20:07:47.151Z,59.42
2019-05-06T20:10:33.224Z,59.39
2019-05-06T20:13:06.318Z,59.25
2019-05-06T20:15:39.618Z,59.01
2019-05-06T20:18:11.781Z,59.42
2019-05-06T20:20:44.366Z,59.71
2019-05-06T20:23:16.736Z,60.21
2019-05-06T20:25:49.125Z,60.28
2019-05-06T20:28:22.742Z,60.65
2019-05-06T20:30:56.213Z,61.01
2019-05-06T20:33:28.913Z,61.14
2019-05-06T20:36:02.414Z,60.92
2019-05-06T20:38:34.566Z,60.61
2019-05-06T20:41:07.269Z,60.48
2019-05-06T20:43:42.362Z,60.42
2019-05-06T20:46:14.783Z,60.51
2019-05-06T20:48:47.154Z,60.68
2019-05-06T20:51:21.800Z,60.61
2019-05-06T20:53:53.422Z,60.51
2019-05-06T20:56:26.001Z,60.51
2019-05-06T20:58:58.583Z,60.33
2019-05-06T21:01:32.627Z,60.46
2019-05-06T21:04:04.990Z,60.44
2019-05-06T21:06:37.548Z,60.45
2019-05-06T21:09:12.222Z,60.40
2019-05-06T21:11:44.243Z,60.33
2019-05-06T21:14:16.824Z,60.37
2019-05-06T21:16:49.216Z,60.38
2019-05-06T21:19:22.223Z,60.32
2019-05-06T21:21:54.765Z,60.57
2019-05-06T21:24:27.158Z,60.77
2019-05-06T21:27:02.817Z,60.77
2019-05-06T21:29:34.772Z,60.94
2019-05-06T21:32:07.134Z,60.87
2019-05-06T21:34:39.724Z,60.99
2019-05-06T21:37:12.399Z,61.17
2019-05-06T21:39:44.763Z,61.14
2019-05-06T21:42:18.999Z,61.07
2019-05-06T21:44:52.269Z,60.80
2019-05-06T21:47:24.656Z,60.74
2019-05-06T21:49:57.258Z,60.60
2019-05-06T21:52:38.885Z,60.57
2019-05-06T21:55:04.359Z,60.55
2019-05-06T21:57:36.625Z,60.50
2019-05-06T22:00:12.662Z,60.56
2019-05-06T22:02:46.289Z,60.44
2019-05-06T22:05:18.954Z,60.59
2019-05-06T22:07:52.567Z,61.01
2019-05-06T22:10:25.238Z,61.59
2019-05-06T22:12:57.633Z,61.56
2019-05-06T22:15:32.257Z,62.11
2019-05-06T22:18:04.224Z,61.95
2019-05-06T22:20:55.222Z,61.98
2019-05-06T22:23:28.911Z,62.09
2019-05-06T22:26:10.836Z,62.18
2019-05-06T22:28:35.144Z,62.03
2019-05-06T22:31:07.584Z,61.89
2019-05-06T22:33:39.950Z,61.63
2019-05-06T22:36:13.197Z,61.44
2019-05-06T22:38:45.527Z,61.45
2019-05-06T22:41:18.006Z,61.40
2019-05-06T22:43:50.489Z,61.39
2019-05-06T22:46:23.562Z,61.52
2019-05-06T22:48:56.053Z,61.43
2019-05-06T22:51:28.415Z,61.54
2019-05-06T22:54:02.726Z,61.76
2019-05-06T22:56:34.903Z,61.86
2019-05-06T22:59:07.394Z,61.78
2019-05-06T23:01:43.089Z,61.63
2019-05-06T23:04:16.526Z,61.52
2019-05-06T23:06:48.609Z,61.48
2019-05-06T23:09:22.887Z,61.68
2019-05-06T23:11:54.897Z,61.60
2019-05-06T23:14:31.499Z,61.80
2019-05-06T23:17:02.882Z,61.60
2019-05-06T23:19:35.496Z,61.61
2019-05-06T23:22:07.873Z,61.59
2019-05-06T23:24:40.249Z,61.59
2019-05-06T23:27:12.745Z,61.91
2019-05-06T23:29:45.155Z,61.87
2019-05-06T23:32:17.274Z,61.96
2019-05-06T23:34:52.358Z,62.15
2019-05-06T23:37:23.582Z,62.05
2019-05-06T23:40:35.006Z,61.98
2019-05-06T23:43:44.018Z,61.85
2019-05-06T23:46:53.145Z,62.08
2019-05-06T23:50:03.539Z,61.82
2019-05-06T23:53:12.995Z,61.62
2019-05-06T23:56:21.902Z,61.88
2019-05-06T23:58:54.291Z,61.76
